Diagonal, Iowa
Current Conditions -  °F | °C
As of 7:35 AM on Sunday 23 Nov 2014 (Local Time) from KCSQ Reporting Station
Haze Haze  
Wind Chill: 52°   Ceiling: 300
Heat Index: 52°   Visibility: 0.75mi
Dew Point: 52°   Wind: 14mph
Humidity: 100%   Direction: 170°S
Pressure: 29.51"   Gusts: NA
Location:  40.81°N, 94.34°W
Report Text: KCSQ 231335Z AUTO 17012KT 3/4SM BR OVC003 11/11 A2951 RMK AO2
Loading
Personal Weather Stations






























Interactive Weather Map New forecast layout! Learn more

10-Day Weather Forecast

Advertisements
Track Severe Weather on mobile